createdAt,value
2019-05-02T00:03:15.762Z,12.67
2019-05-02T00:08:15.746Z,18.17
2019-05-02T00:13:15.562Z,22.47
2019-05-02T00:18:15.699Z,23.30
2019-05-02T00:23:15.515Z,18.40
2019-05-02T00:28:15.147Z,12.60
2019-05-02T00:33:14.786Z,18.40
2019-05-02T00:38:14.330Z,15.40
2019-05-02T00:43:14.847Z,17.40
2019-05-02T00:48:24.299Z,19.57
2019-05-02T00:53:24.070Z,15.50
2019-05-02T00:58:27.307Z,17.73
2019-05-02T01:03:26.529Z,18.10
2019-05-02T01:08:26.289Z,22.30
2019-05-02T01:13:25.891Z,16.40
2019-05-02T01:18:25.486Z,24.43
2019-05-02T01:23:27.627Z,16.40
2019-05-02T01:28:49.193Z,16.90
2019-05-02T01:34:07.207Z,23.40
2019-05-02T01:39:10.216Z,21.53
2019-05-02T01:44:09.877Z,32.93
2019-05-02T01:49:09.422Z,19.83
2019-05-02T01:54:10.083Z,18.50
2019-05-02T01:59:10.250Z,21.50
2019-05-02T02:04:16.073Z,21.40
2019-05-02T02:09:12.979Z,21.67
2019-05-02T02:14:14.948Z,17.70
2019-05-02T02:19:25.155Z,22.70
2019-05-02T02:24:34.921Z,14.70
2019-05-02T02:29:34.491Z,15.83
2019-05-02T02:34:34.042Z,23.13
2019-05-02T02:39:33.673Z,17.83
2019-05-02T02:44:43.192Z,18.23
2019-05-02T02:49:42.742Z,17.07
2019-05-02T02:54:43.687Z,18.40
2019-05-02T02:59:43.540Z,13.00
2019-05-02T03:04:45.947Z,15.57
2019-05-02T03:09:44.589Z,15.13
2019-05-02T03:14:49.550Z,15.60
2019-05-02T03:19:54.469Z,14.73
2019-05-02T03:24:50.338Z,17.77
2019-05-02T03:29:50.191Z,11.30
2019-05-02T03:34:53.542Z,13.20
2019-05-02T03:39:57.568Z,15.23
2019-05-02T03:44:56.164Z,13.27
2019-05-02T03:49:53.952Z,12.17
2019-05-02T03:54:53.867Z,12.30
2019-05-02T03:59:53.491Z,12.87
2019-05-02T04:04:59.731Z,18.93
2019-05-02T04:09:55.402Z,12.93
2019-05-02T04:14:56.033Z,14.77
2019-05-02T04:19:56.792Z,11.67
2019-05-02T04:24:57.271Z,10.07
2019-05-02T04:29:56.961Z,19.40
2019-05-02T04:34:58.052Z,12.53
2019-05-02T04:40:01.394Z,15.00
2019-05-02T04:45:21.406Z,13.77
2019-05-02T04:50:07.740Z,12.60
2019-05-02T04:55:17.159Z,8.53
2019-05-02T05:00:10.515Z,8.60
2019-05-02T05:05:08.132Z,11.80
2019-05-02T05:10:08.383Z,13.80
2019-05-02T05:15:13.382Z,11.60
2019-05-02T05:20:14.126Z,12.03
2019-05-02T05:25:17.688Z,14.00
2019-05-02T05:30:18.744Z,10.70
2019-05-02T05:35:18.409Z,10.67
2019-05-02T05:40:22.445Z,11.80
2019-05-02T05:45:19.206Z,10.57
2019-05-02T05:50:19.846Z,13.93
2019-05-02T05:55:24.064Z,13.33
2019-05-02T06:00:23.179Z,12.73
2019-05-02T06:05:22.127Z,10.60
2019-05-02T06:10:21.823Z,22.43
2019-05-02T06:15:21.371Z,10.03
2019-05-02T06:20:20.998Z,9.77
2019-05-02T06:25:32.102Z,11.33
2019-05-02T06:30:27.171Z,12.40
2019-05-02T06:35:24.641Z,14.50
2019-05-02T06:40:25.169Z,12.10
2019-05-02T06:45:24.968Z,12.10
2019-05-02T06:50:24.944Z,11.13
2019-05-02T06:55:28.129Z,14.50
2019-05-02T07:00:35.577Z,12.93
2019-05-02T07:05:27.410Z,11.37
2019-05-02T07:10:30.976Z,18.93
2019-05-02T07:15:51.606Z,13.30
2019-05-02T07:20:52.319Z,12.50
2019-05-02T07:25:53.034Z,12.07
2019-05-02T07:30:54.654Z,8.13
2019-05-02T07:35:59.663Z,14.07
2019-05-02T07:40:57.030Z,15.43
2019-05-02T07:45:56.806Z,14.80
2019-05-02T07:50:58.787Z,12.70
2019-05-02T07:55:59.662Z,16.60
2019-05-02T08:00:59.421Z,14.20
2019-05-02T08:05:59.945Z,19.07
2019-05-02T08:11:01.694Z,17.93
2019-05-02T08:16:01.977Z,12.00
2019-05-02T08:21:01.531Z,15.90
2019-05-02T08:26:01.858Z,18.50
2019-05-02T08:31:02.497Z,23.33
2019-05-02T08:36:03.021Z,20.30
2019-05-02T08:41:03.554Z,18.40
2019-05-02T08:46:04.232Z,20.33
2019-05-02T08:51:04.769Z,20.60
2019-05-02T08:56:04.567Z,20.93
2019-05-02T09:01:04.306Z,21.03
2019-05-02T09:06:05.974Z,18.87
2019-05-02T09:11:05.306Z,19.33
2019-05-02T09:16:06.031Z,27.73
2019-05-02T09:21:06.284Z,20.30
2019-05-02T09:26:06.172Z,23.60
2019-05-02T09:31:06.757Z,33.17
2019-05-02T09:36:06.753Z,25.73
2019-05-02T09:41:16.130Z,21.63
2019-05-02T09:46:12.805Z,18.03
2019-05-02T09:51:12.904Z,23.30
2019-05-02T09:56:12.665Z,24.67
2019-05-02T10:01:19.451Z,21.80
2019-05-02T10:06:22.812Z,26.73
2019-05-02T10:11:26.151Z,22.20
2019-05-02T10:16:27.330Z,26.10
2019-05-02T10:21:25.548Z,27.60
2019-05-02T10:26:25.290Z,33.00
2019-05-02T10:31:27.479Z,24.60
2019-05-02T10:36:26.157Z,20.83
2019-05-02T10:41:25.727Z,24.03
2019-05-02T10:46:43.339Z,19.87
2019-05-02T10:51:48.974Z,23.33
2019-05-02T10:56:44.221Z,25.50
2019-05-02T11:01:58.284Z,26.87
2019-05-02T11:06:58.239Z,24.30
2019-05-02T11:11:58.590Z,21.83
2019-05-02T11:17:17.652Z,21.50
2019-05-02T11:22:14.968Z,21.37
2019-05-02T11:27:14.573Z,20.80
2019-05-02T11:32:14.142Z,30.97
2019-05-02T11:37:13.707Z,21.93
2019-05-02T11:42:17.539Z,18.63
2019-05-02T11:47:17.185Z,23.60
2019-05-02T11:52:15.856Z,20.03
2019-05-02T11:57:15.485Z,28.00
2019-05-02T12:02:32.926Z,21.93
2019-05-02T12:07:35.984Z,27.00
2019-05-02T12:12:36.390Z,22.43
2019-05-02T12:17:36.151Z,25.83
2019-05-02T12:22:35.716Z,23.17
2019-05-02T12:27:35.278Z,25.90
2019-05-02T12:32:34.902Z,21.37
2019-05-02T12:37:34.458Z,19.57
2019-05-02T12:42:34.369Z,21.93
2019-05-02T12:47:34.311Z,24.13
2019-05-02T12:52:33.875Z,20.90
2019-05-02T12:57:33.513Z,20.40
2019-05-02T13:02:41.239Z,13.13
2019-05-02T13:07:42.885Z,15.40
2019-05-02T13:12:42.856Z,19.33
2019-05-02T13:17:48.244Z,19.70
2019-05-02T13:23:05.875Z,16.00
2019-05-02T13:28:05.726Z,17.97
2019-05-02T13:33:07.389Z,16.63
2019-05-02T13:38:08.918Z,17.83
2019-05-02T13:43:08.731Z,16.83
2019-05-02T13:48:08.598Z,14.63
2019-05-02T13:53:08.346Z,16.10
2019-05-02T13:58:08.171Z,12.70
2019-05-02T14:03:07.833Z,14.80
2019-05-02T14:08:17.721Z,16.43
2019-05-02T14:13:17.278Z,15.47
2019-05-02T14:18:16.848Z,18.50
2019-05-02T14:23:16.404Z,22.43
2019-05-02T14:28:17.027Z,20.63
2019-05-02T14:33:20.547Z,21.03
2019-05-02T14:38:21.962Z,24.13
2019-05-02T14:43:46.121Z,24.10
2019-05-02T14:48:45.104Z,24.73
2019-05-02T14:53:43.008Z,19.13
2019-05-02T14:58:43.023Z,21.10
2019-05-02T15:03:42.727Z,25.10
2019-05-02T15:08:44.894Z,32.30
2019-05-02T15:13:43.730Z,25.13
2019-05-02T15:18:47.667Z,23.60
2019-05-02T15:23:48.863Z,20.30
2019-05-02T15:28:46.737Z,24.00
2019-05-02T15:33:56.342Z,25.30
2019-05-02T15:38:56.125Z,26.40
2019-05-02T15:43:56.396Z,26.27
2019-05-02T15:48:57.123Z,22.17
2019-05-02T15:54:08.215Z,22.90
2019-05-02T15:59:06.346Z,31.63
2019-05-02T16:04:07.394Z,25.90
2019-05-02T16:09:08.005Z,29.90
2019-05-02T16:14:09.177Z,24.33
2019-05-02T16:19:16.570Z,27.10
2019-05-02T16:24:19.924Z,27.63
2019-05-02T16:29:26.911Z,27.13
2019-05-02T16:34:22.670Z,30.17
2019-05-02T16:39:22.426Z,26.13
2019-05-02T16:44:22.851Z,17.90
2019-05-02T16:49:22.811Z,25.90
2019-05-02T16:54:22.485Z,27.00
2019-05-02T16:59:23.278Z,31.73
2019-05-02T17:04:22.947Z,25.33
2019-05-02T17:09:33.830Z,25.13
2019-05-02T17:14:33.568Z,22.10
2019-05-02T17:19:34.786Z,26.30
2019-05-02T17:24:34.557Z,28.57
2019-05-02T17:29:34.143Z,31.00
2019-05-02T17:34:35.060Z,35.13
2019-05-02T17:39:37.310Z,40.20
2019-05-02T17:44:37.088Z,38.83
2019-05-02T17:49:36.941Z,32.67
2019-05-02T17:54:36.701Z,34.27
2019-05-02T17:59:37.740Z,38.97
2019-05-02T18:04:37.430Z,34.67
2019-05-02T18:09:37.012Z,33.10
2019-05-02T18:14:36.566Z,43.03
2019-05-02T18:19:36.101Z,35.50
2019-05-02T18:24:37.320Z,39.73
2019-05-02T18:29:42.437Z,50.17
2019-05-02T18:34:38.274Z,37.97
2019-05-02T18:39:42.621Z,40.27
2019-05-02T18:44:39.158Z,37.13
2019-05-02T18:49:38.711Z,35.30
2019-05-02T18:54:38.572Z,37.50
2019-05-02T18:59:39.504Z,44.07
2019-05-02T19:04:39.841Z,37.17
2019-05-02T19:09:49.072Z,39.70
2019-05-02T19:14:42.002Z,31.83
2019-05-02T19:19:42.727Z,36.43
2019-05-02T19:24:43.369Z,37.83
2019-05-02T19:29:48.090Z,34.77
2019-05-02T19:34:44.518Z,41.17
2019-05-02T19:39:48.754Z,36.83
2019-05-02T19:44:46.683Z,37.23
2019-05-02T19:49:47.349Z,34.57
2019-05-02T19:54:47.622Z,45.43
2019-05-02T19:59:47.249Z,37.50
2019-05-02T20:04:46.882Z,30.57
2019-05-02T20:09:47.439Z,33.57
2019-05-02T20:14:48.309Z,35.27
2019-05-02T20:19:52.765Z,39.03
2019-05-02T20:25:00.102Z,34.50
2019-05-02T20:29:57.508Z,33.50
2019-05-02T20:34:57.092Z,37.80
2019-05-02T20:39:58.648Z,36.67
2019-05-02T20:45:02.192Z,25.20
2019-05-02T20:50:23.747Z,16.07
2019-05-02T20:55:25.303Z,14.70
2019-05-02T21:00:29.408Z,15.60
2019-05-02T21:05:39.363Z,13.20
2019-05-02T21:10:41.721Z,11.80
2019-05-02T21:15:43.396Z,16.03
2019-05-02T21:20:43.014Z,17.47
2019-05-02T21:25:42.570Z,14.57
2019-05-02T21:30:42.182Z,14.10
2019-05-02T21:35:42.396Z,19.83
2019-05-02T21:40:42.397Z,18.20
2019-05-02T21:45:42.228Z,14.70
2019-05-02T21:50:49.798Z,12.77
2019-05-02T21:56:17.803Z,6.37
2019-05-02T22:01:17.751Z,4.17
2019-05-02T22:06:17.298Z,4.53
2019-05-02T22:11:16.852Z,4.47
2019-05-02T22:16:16.490Z,3.37
2019-05-02T22:21:16.031Z,7.10
2019-05-02T22:26:15.595Z,6.70
2019-05-02T22:31:15.145Z,5.50
2019-05-02T22:36:14.789Z,4.90
2019-05-02T22:41:14.344Z,8.10
2019-05-02T22:46:16.254Z,3.87
2019-05-02T22:51:15.811Z,4.50
2019-05-02T22:56:15.411Z,4.23
2019-05-02T23:01:15.035Z,3.77
2019-05-02T23:06:14.745Z,3.60
2019-05-02T23:11:14.842Z,3.23
2019-05-02T23:16:14.563Z,1.70
2019-05-02T23:21:14.136Z,2.93
2019-05-02T23:26:31.826Z,2.40
2019-05-02T23:31:31.761Z,3.90
2019-05-02T23:36:32.700Z,2.20
2019-05-02T23:41:32.934Z,2.90
2019-05-02T23:46:35.471Z,8.23
2019-05-02T23:51:35.281Z,8.47
2019-05-02T23:56:35.992Z,3.13
